createdAt,value
2018-11-20T00:00:22.586Z,21.47
2018-11-20T00:03:22.801Z,20.17
2018-11-20T00:06:22.460Z,23.00
2018-11-20T00:09:25.480Z,23.47
2018-11-20T00:12:18.456Z,23.20
2018-11-20T00:15:07.830Z,22.00
2018-11-20T00:18:07.818Z,22.03
2018-11-20T00:21:07.784Z,21.10
2018-11-20T00:24:10.170Z,21.27
2018-11-20T00:26:58.622Z,21.20
2018-11-20T00:30:03.713Z,21.73
2018-11-20T00:33:03.597Z,21.50
2018-11-20T00:35:56.260Z,21.07
2018-11-20T00:38:56.587Z,20.03
2018-11-20T00:41:47.193Z,19.43
2018-11-20T00:44:45.532Z,20.20
2018-11-20T00:47:45.294Z,22.13
2018-11-20T00:50:45.245Z,20.97
2018-11-20T00:53:45.243Z,20.87
2018-11-20T00:56:40.982Z,20.40
2018-11-20T00:59:40.795Z,20.57
2018-11-20T01:03:20.769Z,21.43
2018-11-20T01:06:23.405Z,21.20
2018-11-20T01:09:28.793Z,21.33
2018-11-20T01:12:15.675Z,20.10
2018-11-20T01:15:09.722Z,18.97
2018-11-20T01:18:12.662Z,20.40
2018-11-20T01:21:12.478Z,20.17
2018-11-20T01:24:02.401Z,20.10
2018-11-20T01:27:02.100Z,19.30
2018-11-20T01:30:01.829Z,18.40
2018-11-20T01:33:02.346Z,19.60
2018-11-20T01:36:02.266Z,19.67
2018-11-20T01:39:02.030Z,18.70
2018-11-20T01:42:01.707Z,19.00
2018-11-20T01:45:04.531Z,19.27
2018-11-20T01:47:51.567Z,18.43
2018-11-20T01:50:51.161Z,19.60
2018-11-20T01:53:53.612Z,18.37
2018-11-20T01:56:53.884Z,18.47
2018-11-20T01:59:53.786Z,20.30
2018-11-20T02:02:47.736Z,19.73
2018-11-20T02:05:42.665Z,20.07
2018-11-20T02:08:41.807Z,18.87
2018-11-20T02:11:47.811Z,18.97
2018-11-20T02:14:50.357Z,19.03
2018-11-20T02:17:47.852Z,19.83
2018-11-20T02:20:47.760Z,18.83
2018-11-20T02:23:47.699Z,20.00
2018-11-20T02:26:48.103Z,19.33
2018-11-20T02:29:45.059Z,19.17
2018-11-20T02:32:45.241Z,19.93
2018-11-20T02:35:45.160Z,18.03
2018-11-20T02:38:37.880Z,18.80
2018-11-20T02:41:40.308Z,19.20
2018-11-20T02:44:40.764Z,18.57
2018-11-20T02:50:45.658Z,19.57
2018-11-20T02:53:32.643Z,19.60
2018-11-20T02:56:29.360Z,19.53
2018-11-20T02:59:29.523Z,19.00
2018-11-20T03:02:22.282Z,19.67
2018-11-20T03:05:22.173Z,19.10
2018-11-20T03:08:18.407Z,20.57
2018-11-20T03:11:18.418Z,20.53
2018-11-20T03:14:12.089Z,20.07
2018-11-20T03:17:12.521Z,19.70
2018-11-20T03:20:12.933Z,19.07
2018-11-20T03:23:12.767Z,21.40
2018-11-20T03:26:12.413Z,19.17
2018-11-20T03:29:12.653Z,20.50
2018-11-20T03:32:01.597Z,21.67
2018-11-20T03:34:54.993Z,20.07
2018-11-20T03:37:57.950Z,19.90
2018-11-20T03:40:44.939Z,20.40
2018-11-20T03:43:50.331Z,20.30
2018-11-20T03:46:38.544Z,22.10
2018-11-20T03:49:38.527Z,20.63
2018-11-20T03:52:33.265Z,21.97
2018-11-20T03:55:39.186Z,20.20
2018-11-20T03:58:38.363Z,20.17
2018-11-20T04:01:41.343Z,20.60
2018-11-20T04:04:41.486Z,21.20
2018-11-20T04:07:42.026Z,21.20
2018-11-20T04:10:36.648Z,21.80
2018-11-20T04:13:37.027Z,21.43
2018-11-20T04:16:37.133Z,20.27
2018-11-20T04:19:37.185Z,21.17
2018-11-20T04:22:37.534Z,21.10
2018-11-20T04:25:40.202Z,21.60
2018-11-20T04:28:41.278Z,21.00
2018-11-20T04:31:40.789Z,22.53
2018-11-20T04:34:40.655Z,20.70
2018-11-20T04:37:40.689Z,20.53
2018-11-20T04:40:40.565Z,19.93
2018-11-20T04:43:40.113Z,21.83
2018-11-20T04:46:31.279Z,21.67
2018-11-20T04:49:37.163Z,22.90
2018-11-20T04:52:39.902Z,21.20
2018-11-20T04:55:40.358Z,20.53
2018-11-20T04:58:39.299Z,23.17
2018-11-20T05:01:38.831Z,22.00
2018-11-20T05:04:41.393Z,22.03
2018-11-20T05:07:38.718Z,22.30
2018-11-20T05:10:38.367Z,22.57
2018-11-20T05:13:31.972Z,23.70
2018-11-20T05:16:19.314Z,26.47
2018-11-20T05:19:21.794Z,26.50
2018-11-20T05:22:24.983Z,21.83
2018-11-20T05:25:24.753Z,21.10
2018-11-20T05:28:24.680Z,22.20
2018-11-20T05:31:30.737Z,22.83
2018-11-20T05:34:30.607Z,22.17
2018-11-20T05:37:32.644Z,22.90
2018-11-20T05:40:26.682Z,21.70
2018-11-20T05:43:24.670Z,22.63
2018-11-20T05:46:11.613Z,21.30
2018-11-20T05:49:09.109Z,23.53
2018-11-20T05:52:09.595Z,24.60
2018-11-20T05:55:10.022Z,22.67
2018-11-20T05:58:10.022Z,21.20
2018-11-20T06:04:29.342Z,21.70
2018-11-20T06:07:29.236Z,22.83
2018-11-20T06:10:29.562Z,18.50
2018-11-20T06:13:29.540Z,21.93
2018-11-20T06:16:29.303Z,21.90
2018-11-20T06:19:28.425Z,21.97
2018-11-20T06:22:27.536Z,21.53
2018-11-20T06:25:19.386Z,22.60
2018-11-20T06:28:25.367Z,22.83
2018-11-20T06:31:20.864Z,21.00
2018-11-20T06:34:20.883Z,21.77
2018-11-20T06:37:20.478Z,21.90
2018-11-20T06:40:17.194Z,19.53
2018-11-20T06:43:17.257Z,20.83
2018-11-20T06:46:10.440Z,22.63
2018-11-20T06:49:04.781Z,21.97
2018-11-20T06:52:04.316Z,22.40
2018-11-20T06:55:10.250Z,20.60
2018-11-20T06:58:09.743Z,22.07
2018-11-20T07:01:09.798Z,21.10
2018-11-20T07:04:15.323Z,21.67
2018-11-20T07:07:15.752Z,21.20
2018-11-20T07:10:20.907Z,22.30
2018-11-20T07:13:20.986Z,22.27
2018-11-20T07:16:14.668Z,22.10
2018-11-20T07:19:12.133Z,21.93
2018-11-20T07:22:02.882Z,21.13
2018-11-20T07:25:03.537Z,21.93
2018-11-20T07:28:03.961Z,22.20
2018-11-20T07:31:04.599Z,22.00
2018-11-20T07:34:04.251Z,22.57
2018-11-20T07:36:56.498Z,20.97
2018-11-20T07:39:56.141Z,23.30
2018-11-20T07:42:55.789Z,21.47
2018-11-20T07:45:56.076Z,21.93
2018-11-20T07:48:55.874Z,20.77
2018-11-20T07:51:56.359Z,23.63
2018-11-20T07:54:56.625Z,24.23
2018-11-20T07:58:02.220Z,21.20
2018-11-20T08:01:02.513Z,22.17
2018-11-20T08:04:02.369Z,24.30
2018-11-20T08:07:01.927Z,22.80
2018-11-20T08:10:01.985Z,24.60
2018-11-20T08:13:07.784Z,25.87
2018-11-20T08:16:10.219Z,26.03
2018-11-20T08:19:05.525Z,22.53
2018-11-20T08:21:58.882Z,24.30
2018-11-20T08:24:58.441Z,23.60
2018-11-20T08:27:58.147Z,23.50
2018-11-20T08:30:57.836Z,22.20
2018-11-20T08:33:57.638Z,22.17
2018-11-20T08:36:57.197Z,21.00
2018-11-20T08:39:56.680Z,20.70
2018-11-20T08:42:56.495Z,21.97
2018-11-20T08:45:56.349Z,20.23
2018-11-20T08:48:52.636Z,20.70
2018-11-20T08:51:53.116Z,20.70
2018-11-20T08:54:52.988Z,20.47
2018-11-20T08:57:53.238Z,25.13
2018-11-20T09:00:58.419Z,30.50
2018-11-20T09:03:58.668Z,22.60
2018-11-20T09:06:59.134Z,20.60
2018-11-20T09:09:58.902Z,21.97
2018-11-20T09:12:58.638Z,20.73
2018-11-20T09:15:58.497Z,21.00
2018-11-20T09:19:01.278Z,22.13
2018-11-20T09:22:01.268Z,21.80
2018-11-20T09:25:01.285Z,19.80
2018-11-20T09:28:01.763Z,19.60
2018-11-20T09:31:02.115Z,21.83
2018-11-20T09:34:01.794Z,25.40
2018-11-20T09:40:11.770Z,23.20
2018-11-20T09:43:11.433Z,25.00
2018-11-20T09:46:11.239Z,24.57
2018-11-20T09:49:16.797Z,22.30
2018-11-20T09:52:16.863Z,21.50
2018-11-20T09:55:19.441Z,21.73
2018-11-20T09:58:11.362Z,20.97
2018-11-20T10:01:11.324Z,20.77
2018-11-20T10:04:10.943Z,22.03
2018-11-20T10:07:11.106Z,20.73
2018-11-20T10:10:00.064Z,22.07
2018-11-20T10:12:47.014Z,22.90
2018-11-20T10:15:46.839Z,22.67
2018-11-20T10:18:46.922Z,22.00
2018-11-20T10:21:46.766Z,21.60
2018-11-20T10:24:46.374Z,23.10
2018-11-20T10:27:46.338Z,21.97
2018-11-20T10:30:46.372Z,21.83
2018-11-20T10:33:42.756Z,22.63
2018-11-20T10:36:42.584Z,25.07
2018-11-20T10:39:42.342Z,21.07
2018-11-20T10:42:41.636Z,29.33
2018-11-20T10:45:41.687Z,21.03
2018-11-20T10:48:38.790Z,22.87
2018-11-20T10:51:38.646Z,21.47
2018-11-20T10:54:44.829Z,21.13
2018-11-20T10:57:37.416Z,20.30
2018-11-20T11:00:37.930Z,22.97
2018-11-20T11:03:18.420Z,22.80
2018-11-20T11:06:19.138Z,26.80
2018-11-20T11:09:19.533Z,23.80
2018-11-20T11:12:19.617Z,23.13
2018-11-20T11:15:24.900Z,26.00
2018-11-20T11:18:19.647Z,24.57
2018-11-20T11:21:19.610Z,25.60
2018-11-20T11:24:20.010Z,24.60
2018-11-20T11:27:17.118Z,23.37
2018-11-20T11:30:17.809Z,23.93
2018-11-20T11:33:21.338Z,26.30
2018-11-20T11:36:18.625Z,27.50
2018-11-20T11:39:24.167Z,26.43
2018-11-20T11:42:14.031Z,30.17
2018-11-20T11:45:13.892Z,24.10
2018-11-20T11:48:14.526Z,32.63
2018-11-20T11:51:14.990Z,33.20
2018-11-20T11:54:14.957Z,28.90
2018-11-20T11:57:14.643Z,24.27
2018-11-20T12:00:14.627Z,36.30
2018-11-20T12:03:14.074Z,26.23
2018-11-20T12:06:16.980Z,25.73
2018-11-20T12:09:16.979Z,24.10
2018-11-20T12:12:16.939Z,21.37
2018-11-20T12:15:16.711Z,24.07
2018-11-20T12:18:16.395Z,25.47
2018-11-20T12:21:16.060Z,24.47
2018-11-20T12:24:15.591Z,21.73
2018-11-20T12:27:20.323Z,25.90
2018-11-20T12:30:18.259Z,24.77
2018-11-20T12:33:18.210Z,24.10
2018-11-20T12:36:23.768Z,20.50
2018-11-20T12:39:23.323Z,21.67
2018-11-20T12:42:11.731Z,23.00
2018-11-20T12:45:17.348Z,21.07
2018-11-20T12:48:17.319Z,20.83
2018-11-20T12:51:17.265Z,26.10
2018-11-20T12:54:17.083Z,20.87
2018-11-20T12:57:16.791Z,18.07
2018-11-20T12:59:56.962Z,21.57
2018-11-20T13:02:56.672Z,19.70
2018-11-20T13:05:56.427Z,21.20
2018-11-20T13:09:00.896Z,21.77
2018-11-20T13:11:59.354Z,20.00
2018-11-20T13:14:59.469Z,23.50
2018-11-20T13:18:05.930Z,27.67
2018-11-20T13:20:56.121Z,24.17
2018-11-20T13:23:56.575Z,21.53
2018-11-20T13:26:56.119Z,19.90
2018-11-20T13:29:56.780Z,21.40
2018-11-20T13:32:57.286Z,20.33
2018-11-20T13:35:57.409Z,22.07
2018-11-20T13:38:57.659Z,25.13
2018-11-20T13:41:57.421Z,26.33
2018-11-20T13:44:57.390Z,26.20
2018-11-20T13:48:02.619Z,23.73
2018-11-20T13:50:51.840Z,20.70
2018-11-20T13:53:45.891Z,20.77
2018-11-20T13:56:45.886Z,21.73
2018-11-20T13:59:48.708Z,22.30
2018-11-20T14:02:56.960Z,21.10
2018-11-20T14:05:59.776Z,23.17
2018-11-20T14:09:01.746Z,20.63
2018-11-20T14:12:01.636Z,20.30
2018-11-20T14:14:56.381Z,21.77
2018-11-20T14:17:56.414Z,21.30
2018-11-20T14:20:58.750Z,19.40
2018-11-20T14:24:01.374Z,23.10
2018-11-20T14:27:01.032Z,20.70
2018-11-20T14:29:48.671Z,21.40
2018-11-20T14:32:48.913Z,21.60
2018-11-20T14:35:49.451Z,21.50
2018-11-20T14:38:56.200Z,23.50
2018-11-20T14:41:49.692Z,22.00
2018-11-20T14:44:55.573Z,21.80
2018-11-20T14:47:56.079Z,22.00
2018-11-20T14:50:56.220Z,23.50
2018-11-20T14:53:41.810Z,23.63
2018-11-20T14:56:41.974Z,22.47
2018-11-20T14:59:42.376Z,22.27
2018-11-20T15:02:42.804Z,23.30
2018-11-20T15:05:45.730Z,22.47
2018-11-20T15:08:46.296Z,23.00
2018-11-20T15:11:46.468Z,24.70
2018-11-20T15:14:46.478Z,22.87
2018-11-20T15:17:47.127Z,23.10
2018-11-20T15:20:47.184Z,22.80
2018-11-20T15:23:46.913Z,23.10
2018-11-20T15:26:38.641Z,25.87
2018-11-20T15:29:39.052Z,23.40
2018-11-20T15:32:28.620Z,24.67
2018-11-20T15:35:34.473Z,24.17
2018-11-20T15:38:29.377Z,28.00
2018-11-20T15:41:29.915Z,24.20
2018-11-20T15:44:30.372Z,25.60
2018-11-20T15:47:30.349Z,23.80
2018-11-20T15:50:31.038Z,25.47
2018-11-20T15:53:31.595Z,25.37
2018-11-20T15:56:31.364Z,25.03
2018-11-20T15:59:31.623Z,26.20
2018-11-20T16:02:31.473Z,25.87
2018-11-20T16:05:31.066Z,25.77
2018-11-20T16:08:31.169Z,28.60
2018-11-20T16:11:31.610Z,27.77
2018-11-20T16:14:26.614Z,30.40
2018-11-20T16:17:27.201Z,31.53
2018-11-20T16:20:27.684Z,26.10
2018-11-20T16:23:28.106Z,25.60
2018-11-20T16:26:28.203Z,27.77
2018-11-20T16:32:28.337Z,25.00
2018-11-20T16:35:28.071Z,27.10
2018-11-20T16:38:28.037Z,24.67
2018-11-20T16:41:28.635Z,25.80
2018-11-20T16:44:28.540Z,24.03
2018-11-20T16:47:28.214Z,25.27
2018-11-20T16:50:29.499Z,26.60
2018-11-20T16:53:29.560Z,25.57
2018-11-20T16:56:29.280Z,25.57
2018-11-20T16:59:45.285Z,25.80
2018-11-20T17:02:45.264Z,25.20
2018-11-20T17:05:45.611Z,23.13
2018-11-20T17:08:39.529Z,24.33
2018-11-20T17:11:39.329Z,25.83
2018-11-20T17:14:39.635Z,25.53
2018-11-20T17:17:35.620Z,25.43
2018-11-20T17:20:35.331Z,25.00
2018-11-20T17:23:35.373Z,23.70
2018-11-20T17:26:36.671Z,24.70
2018-11-20T17:29:36.820Z,25.60
2018-11-20T17:32:37.083Z,26.27
2018-11-20T17:35:42.567Z,23.70
2018-11-20T17:38:42.452Z,24.57
2018-11-20T17:41:42.211Z,28.60
2018-11-20T17:44:41.893Z,26.30
2018-11-20T17:47:41.509Z,26.23
2018-11-20T17:50:41.262Z,24.30
2018-11-20T17:53:40.983Z,25.10
2018-11-20T17:56:40.786Z,26.80
2018-11-20T17:59:46.647Z,26.90
2018-11-20T18:02:47.495Z,26.70
2018-11-20T18:06:07.178Z,26.13
2018-11-20T18:12:32.125Z,25.90
2018-11-20T18:15:31.962Z,25.73
2018-11-20T18:18:31.566Z,26.20
2018-11-20T18:21:23.977Z,25.30
2018-11-20T18:24:15.033Z,24.90
2018-11-20T18:27:20.788Z,25.47
2018-11-20T18:30:09.944Z,26.30
2018-11-20T18:33:10.093Z,27.30
2018-11-20T18:36:10.375Z,26.70
2018-11-20T18:39:11.217Z,25.20
2018-11-20T18:42:12.030Z,25.20
2018-11-20T18:45:14.211Z,25.17
2018-11-20T18:48:14.298Z,25.90
2018-11-20T18:51:07.464Z,24.87
2018-11-20T18:54:07.987Z,26.60
2018-11-20T18:57:07.623Z,25.33
2018-11-20T19:00:07.541Z,25.73
2018-11-20T19:03:12.695Z,25.93
2018-11-20T19:06:12.743Z,27.30
2018-11-20T19:09:12.330Z,29.27
2018-11-20T19:12:12.160Z,26.20
2018-11-20T19:15:11.693Z,27.27
2018-11-20T19:18:11.439Z,25.60
2018-11-20T19:21:11.274Z,26.47
2018-11-20T19:24:10.969Z,26.60
2018-11-20T19:27:14.160Z,28.13
2018-11-20T19:30:14.566Z,28.00
2018-11-20T19:33:14.529Z,26.60
2018-11-20T19:36:16.957Z,27.10
2018-11-20T19:39:16.910Z,26.40
2018-11-20T19:42:17.472Z,24.70
2018-11-20T19:45:18.172Z,26.20
2018-11-20T19:48:18.730Z,26.97
2018-11-20T19:51:20.459Z,26.20
2018-11-20T19:54:27.600Z,27.53
2018-11-20T19:57:28.342Z,25.50
2018-11-20T20:00:29.568Z,27.33
2018-11-20T20:03:29.924Z,29.43
2018-11-20T20:06:29.621Z,26.93
2018-11-20T20:09:21.651Z,27.60
2018-11-20T20:12:23.686Z,29.20
2018-11-20T20:15:23.718Z,26.53
2018-11-20T20:18:24.000Z,27.20
2018-11-20T20:21:25.349Z,25.33
2018-11-20T20:24:22.620Z,25.40
2018-11-20T20:27:22.138Z,25.50
2018-11-20T20:30:23.306Z,26.40
2018-11-20T20:33:23.417Z,27.17
2018-11-20T20:36:43.115Z,25.73
2018-11-20T20:39:43.000Z,28.43
2018-11-20T20:42:45.411Z,27.00
2018-11-20T20:45:48.523Z,27.83
2018-11-20T20:48:48.221Z,26.20
2018-11-20T20:51:37.806Z,26.30
2018-11-20T20:54:38.042Z,27.87
2018-11-20T20:57:37.840Z,25.37
2018-11-20T21:00:38.665Z,26.60
2018-11-20T21:03:38.301Z,28.27
2018-11-20T21:06:37.943Z,25.30
2018-11-20T21:09:37.694Z,26.63
2018-11-20T21:12:37.361Z,25.57
2018-11-20T21:15:42.874Z,26.83
2018-11-20T21:18:42.527Z,26.03
2018-11-20T21:21:42.859Z,24.93
2018-11-20T21:24:48.837Z,25.13
2018-11-20T21:27:54.526Z,24.20
2018-11-20T21:30:55.040Z,28.13
2018-11-20T21:33:55.496Z,25.03
2018-11-20T21:36:51.595Z,23.60
2018-11-20T21:39:51.386Z,24.50
2018-11-20T21:42:51.697Z,25.57
2018-11-20T21:45:54.584Z,22.70
2018-11-20T21:48:50.939Z,23.90
2018-11-20T21:51:50.097Z,25.40
2018-11-20T21:54:49.803Z,25.17
2018-11-20T21:57:49.859Z,25.80
2018-11-20T22:00:49.407Z,23.40
2018-11-20T22:03:51.986Z,23.43
2018-11-20T22:06:52.068Z,22.37
2018-11-20T22:09:54.714Z,24.03
2018-11-20T22:12:54.584Z,23.53
2018-11-20T22:15:54.368Z,24.87
2018-11-20T22:18:54.106Z,25.40
2018-11-20T22:21:54.145Z,23.43
2018-11-20T22:24:54.234Z,22.60
2018-11-20T22:27:48.433Z,22.13
2018-11-20T22:30:48.905Z,23.57
2018-11-20T22:33:48.973Z,22.07
2018-11-20T22:36:48.579Z,22.40
2018-11-20T22:39:48.482Z,21.57
2018-11-20T22:42:53.640Z,21.30
2018-11-20T22:45:53.675Z,23.27
2018-11-20T22:48:59.913Z,20.40
2018-11-20T22:52:00.251Z,20.67
2018-11-20T22:55:00.519Z,19.80
2018-11-20T22:58:00.925Z,20.63
2018-11-20T23:01:01.001Z,22.13
2018-11-20T23:04:00.873Z,22.43
2018-11-20T23:06:53.253Z,19.50
2018-11-20T23:09:33.530Z,19.83
2018-11-20T23:12:14.005Z,18.70
2018-11-20T23:14:54.289Z,20.53
2018-11-20T23:17:34.726Z,19.10
2018-11-20T23:20:14.462Z,19.50
2018-11-20T23:22:55.067Z,19.17
2018-11-20T23:25:34.831Z,19.83
2018-11-20T23:28:15.225Z,19.40
2018-11-20T23:30:55.344Z,19.70
2018-11-20T23:33:35.914Z,20.60
2018-11-20T23:36:15.611Z,20.93
2018-11-20T23:38:56.240Z,18.57
2018-11-20T23:41:35.806Z,20.47
2018-11-20T23:44:15.532Z,19.93
2018-11-20T23:46:55.179Z,18.57
2018-11-20T23:49:35.116Z,18.93
2018-11-20T23:52:14.972Z,17.93
2018-11-20T23:54:54.610Z,20.20
2018-11-20T23:57:34.366Z,18.10
